San Diego, California
Traffic Map
Current Weather Conditions
San Diego, California
Broken Clouds
Broken Clouds
67°
Feels Like: 67°
Wind Chill: 67° Ceiling: 22000
Heat Index: 67° Visibility: 10mi
Dew Point: 53° Wind: 12mph
Humidity: 61% Direction: 250° (WSW)
Pressure: 29.89in Gusts: 0mph
Raw Report DataKSAN 182251Z 25010KT 10SM FEW040 SCT180 BKN220 19/12 A2989 RMK AO2 SLP121 T01940117
Traffic Incident Summary
Active as of:
Severity:
Category:
InformationThere was an issue retrieving the traffic information for this location. Please try a different location or try again shortly.
Advertisements
At Last! Intellicast now available for iPhone and Android